Time;durP1;ratioP1;P1;durP2;ratioP2;P2;SDS_P1;SDS_P2;PMS_P1;PMS_P2;Temp;Humidity;BMP_temperature;BMP_pressure;BME280_temperature;BME280_humidity;BME280_pressure;Samples;Min_cycle;Max_cycle;Signal;HPM_P1;HPM_P2
2021/03/25 00:01:07;;;;;;;17.77;12.82;;;;;;;3.80;100.00;101458.81;5041100;28;20120;-75
2021/03/25 00:03:54;;;;;;;20.63;13.98;;;;;;;3.64;100.00;101460.22;5040293;28;20525;-76
2021/03/25 00:06:52;;;;;;;18.25;13.23;;;;;;;3.26;100.00;101448.09;5055333;28;20029;-75
2021/03/25 00:09:42;;;;;;;19.23;13.77;;;;;;;3.83;100.00;101446.81;5054488;28;20021;-75
2021/03/25 00:12:28;;;;;;;17.23;13.02;;;;;;;4.01;100.00;101452.38;5042210;28;20040;-74
2021/03/25 00:15:15;;;;;;;18.08;12.73;;;;;;;3.75;100.00;101452.66;5053462;28;20035;-75
2021/03/25 00:18:02;;;;;;;17.95;13.38;;;;;;;3.51;100.00;101453.00;5039990;28;20037;-75
2021/03/25 00:20:48;;;;;;;19.38;13.32;;;;;;;4.02;100.00;101448.91;5039371;28;20029;-75
2021/03/25 00:23:35;;;;;;;21.80;14.70;;;;;;;4.11;100.00;101449.09;5054890;28;20052;-75
2021/03/25 00:26:20;;;;;;;18.42;13.30;;;;;;;4.28;100.00;101445.16;5054609;28;20017;-73
2021/03/25 00:29:06;;;;;;;19.05;13.30;;;;;;;4.04;100.00;101449.84;5053908;28;20044;-74
2021/03/25 00:31:52;;;;;;;17.33;12.95;;;;;;;4.45;100.00;101440.25;5040609;28;20029;-74
2021/03/25 00:34:38;;;;;;;17.00;12.68;;;;;;;4.02;100.00;101445.47;5054599;28;20032;-75
2021/03/25 00:37:23;;;;;;;17.80;12.82;;;;;;;4.23;100.00;101433.78;5054063;28;20024;-75
2021/03/25 00:40:11;;;;;;;19.75;12.63;;;;;;;4.18;100.00;101440.59;5054339;28;20053;-76
2021/03/25 00:42:57;;;;;;;16.73;12.20;;;;;;;4.58;100.00;101432.72;5054519;28;20068;-74
2021/03/25 00:45:45;;;;;;;18.33;12.43;;;;;;;4.22;100.00;101434.63;5054526;28;20438;-74
2021/03/25 00:48:31;;;;;;;18.05;12.32;;;;;;;4.25;100.00;101428.63;5054390;28;20108;-75
2021/03/25 00:51:16;;;;;;;21.05;13.50;;;;;;;3.60;100.00;101432.47;5053937;28;20104;-74
2021/03/25 00:54:03;;;;;;;19.10;13.02;;;;;;;3.52;100.00;101434.03;5054754;28;20025;-75
2021/03/25 00:56:49;;;;;;;17.05;12.10;;;;;;;3.68;100.00;101433.53;5053867;28;20029;-75
2021/03/25 00:59:35;;;;;;;18.50;13.15;;;;;;;3.45;100.00;101434.72;5054007;28;20111;-74
2021/03/25 01:02:20;;;;;;;19.58;12.98;;;;;;;3.38;100.00;101435.41;5053723;28;20111;-73
2021/03/25 01:05:07;;;;;;;18.25;13.00;;;;;;;3.77;100.00;101443.19;5054405;28;20024;-74
2021/03/25 01:07:53;;;;;;;18.80;12.65;;;;;;;3.79;100.00;101442.41;5053579;28;20033;-74
2021/03/25 01:10:43;;;;;;;16.98;11.98;;;;;;;3.21;100.00;101435.88;5054134;28;20131;-74
2021/03/25 01:13:42;;;;;;;15.77;11.85;;;;;;;3.45;100.00;101442.50;5038546;28;20029;-75
2021/03/25 01:16:41;;;;;;;19.90;13.07;;;;;;;3.82;100.00;101450.22;5053827;28;20020;-75
2021/03/25 01:19:30;;;;;;;18.02;12.38;;;;;;;3.60;100.00;101445.44;5054009;28;20021;-75
2021/03/25 01:22:15;;;;;;;16.48;11.85;;;;;;;3.80;100.00;101438.06;5053425;28;20365;-74
2021/03/25 01:25:01;;;;;;;19.60;13.57;;;;;;;3.72;100.00;101445.69;5053906;28;20025;-74
2021/03/25 01:27:48;;;;;;;18.38;12.30;;;;;;;4.07;100.00;101441.25;5052811;28;20053;-75
2021/03/25 01:30:35;;;;;;;18.33;13.00;;;;;;;4.24;100.00;101430.38;5054710;28;20029;-75
2021/03/25 01:33:22;;;;;;;18.60;12.93;;;;;;;4.35;100.00;101435.75;5053586;28;20067;-75
2021/03/25 01:36:07;;;;;;;17.88;12.73;;;;;;;4.22;100.00;101444.16;5053791;28;20021;-74
2021/03/25 01:38:53;;;;;;;17.70;12.23;;;;;;;3.72;100.00;101447.41;5053374;28;20021;-75
2021/03/25 01:41:41;;;;;;;18.02;12.10;;;;;;;4.18;100.00;101435.41;5053576;28;20025;-75
2021/03/25 01:44:36;;;;;;;19.75;12.90;;;;;;;4.15;100.00;101439.69;5053249;28;20049;-75
2021/03/25 01:47:22;;;;;;;18.63;12.85;;;;;;;4.08;100.00;101441.28;5053395;28;20051;-75
2021/03/25 01:50:08;;;;;;;21.95;13.73;;;;;;;3.80;100.00;101438.06;5056022;28;20021;-75
2021/03/25 01:53:00;;;;;;;16.95;11.68;;;;;;;3.64;100.00;101443.78;5057640;28;20029;-73
2021/03/25 01:56:11;;;;;;;18.52;12.40;;;;;;;3.98;100.00;101443.66;5057737;28;20056;-74
2021/03/25 01:59:22;;;;;;;19.35;13.32;;;;;;;3.92;100.00;101444.41;5043313;28;20029;-74
2021/03/25 02:02:21;;;;;;;17.35;12.07;;;;;;;3.75;100.00;101448.38;5042105;28;20064;-74
2021/03/25 02:05:26;;;;;;;17.35;12.05;;;;;;;3.91;100.00;101453.00;5042757;28;20029;-74
2021/03/25 02:08:26;;;;;;;16.55;11.60;;;;;;;4.43;100.00;101449.75;5057097;28;20115;-74
2021/03/25 02:11:42;;;;;;;14.77;10.98;;;;;;;3.59;100.00;101453.16;5057225;28;20025;-74
2021/03/25 02:14:39;;;;;;;15.07;11.13;;;;;;;4.35;100.00;101448.72;5041772;28;20406;-75
2021/03/25 02:17:27;;;;;;;17.35;12.40;;;;;;;4.19;100.00;101455.31;5042299;28;20029;-75
2021/03/25 02:20:31;;;;;;;18.38;11.80;;;;;;;4.54;100.00;101458.56;5057017;28;20453;-74
2021/03/25 02:23:31;;;;;;;18.70;13.15;;;;;;;4.13;100.00;101470.75;5056323;28;20095;-73
2021/03/25 02:26:29;;;;;;;14.95;11.00;;;;;;;4.34;100.00;101471.19;5056712;28;20063;-73
2021/03/25 02:29:56;;;;;;;15.68;11.30;;;;;;;4.17;100.00;101466.50;5057094;28;20370;-75
2021/03/25 02:33:11;;;;;;;15.07;10.95;;;;;;;4.18;100.00;101473.47;5055995;28;20033;-74
2021/03/25 02:36:02;;;;;;;16.35;11.40;;;;;;;3.64;100.00;101480.94;5056691;28;20028;-74
2021/03/25 02:38:59;;;;;;;14.70;11.07;;;;;;;3.90;100.00;101477.19;5055947;28;20021;-75
2021/03/25 02:41:50;;;;;;;15.52;11.85;;;;;;;3.99;100.00;101484.28;5056092;28;20055;-75
2021/03/25 02:44:44;;;;;;;14.77;11.15;;;;;;;4.12;100.00;101479.41;5041789;28;20040;-75
2021/03/25 02:47:34;;;;;;;15.65;10.73;;;;;;;4.35;100.00;101477.25;5056680;28;20024;-75
2021/03/25 02:50:22;;;;;;;13.77;10.02;;;;;;;4.40;100.00;101480.81;5057111;28;20121;-75
2021/03/25 02:53:21;;;;;;;14.27;11.10;;;;;;;3.92;100.00;101483.28;5041280;28;20112;-75
2021/03/25 02:56:21;;;;;;;14.45;10.45;;;;;;;3.71;100.00;101487.13;5056570;28;20404;-75
2021/03/25 02:59:16;;;;;;;15.75;11.43;;;;;;;4.17;100.00;101490.72;5056532;28;20044;-75
2021/03/25 03:02:16;;;;;;;13.15;10.15;;;;;;;4.10;100.00;101490.59;5056253;28;20488;-75
2021/03/25 03:05:12;;;;;;;16.20;10.57;;;;;;;4.15;100.00;101495.00;5056312;28;20064;-74
2021/03/25 03:08:01;;;;;;;13.35;9.48;;;;;;;4.16;100.00;101501.94;5042916;28;20127;-75
2021/03/25 03:10:58;;;;;;;13.45;10.30;;;;;;;4.33;100.00;101492.78;5056261;28;20020;-76
2021/03/25 03:14:00;;;;;;;15.68;10.50;;;;;;;3.30;100.00;101503.44;5056611;28;20032;-75
2021/03/25 03:16:52;;;;;;;15.02;10.88;;;;;;;3.56;100.00;101502.31;5056096;28;20029;-74
2021/03/25 03:19:52;;;;;;;13.02;10.48;;;;;;;3.81;100.00;101502.91;5041100;28;20044;-76
2021/03/25 03:22:38;;;;;;;15.95;10.20;;;;;;;4.03;100.00;101507.69;5040834;28;20061;-75
2021/03/25 03:25:26;;;;;;;15.38;10.70;;;;;;;3.77;100.00;101508.88;5056500;28;20071;-75
2021/03/25 03:28:21;;;;;;;16.08;10.60;;;;;;;4.13;100.00;101521.72;5055233;28;20475;-75
2021/03/25 03:31:13;;;;;;;15.90;11.35;;;;;;;4.06;100.00;101520.72;5055822;28;20075;-76
2021/03/25 03:34:06;;;;;;;15.13;11.68;;;;;;;3.66;100.00;101528.47;5055741;28;20043;-75
2021/03/25 03:36:56;;;;;;;16.98;11.43;;;;;;;4.06;100.00;101525.06;5055281;28;20174;-75
2021/03/25 03:39:43;;;;;;;16.00;11.90;;;;;;;4.49;100.00;101522.50;5055376;28;20025;-75
2021/03/25 03:42:30;;;;;;;14.73;11.32;;;;;;;4.23;100.00;101524.56;5040763;28;20327;-74
2021/03/25 03:45:22;;;;;;;15.88;10.80;;;;;;;4.14;100.00;101519.19;5055431;28;20067;-75
2021/03/25 03:48:18;;;;;;;18.58;12.15;;;;;;;4.21;100.00;101528.84;5055384;28;20043;-75
2021/03/25 03:51:08;;;;;;;15.25;11.27;;;;;;;4.22;100.00;101533.19;5041562;28;20453;-74
2021/03/25 03:53:56;;;;;;;15.98;10.98;;;;;;;4.16;100.00;101527.88;5040283;28;20029;-76
2021/03/25 03:56:45;;;;;;;12.80;9.90;;;;;;;4.27;100.00;101528.97;5055337;28;20028;-75
2021/03/25 03:59:48;;;;;;;15.48;11.20;;;;;;;4.07;100.00;101527.66;5055289;28;20167;-76
2021/03/25 04:02:36;;;;;;;16.15;10.38;;;;;;;4.31;100.00;101527.31;5041328;28;20025;-76
2021/03/25 04:05:27;;;;;;;14.63;10.35;;;;;;;4.25;100.00;101527.19;5055106;28;20036;-74
2021/03/25 04:08:31;;;;;;;16.25;10.70;;;;;;;4.25;100.00;101529.78;5055030;28;20033;-75
2021/03/25 04:11:17;;;;;;;17.40;11.50;;;;;;;3.90;100.00;101536.78;5055037;28;20472;-75
2021/03/25 04:14:25;;;;;;;16.02;10.60;;;;;;;4.15;100.00;101538.22;5055111;28;20040;-75
2021/03/25 04:17:16;;;;;;;15.60;11.30;;;;;;;4.19;100.00;101538.28;5054539;28;20021;-74
2021/03/25 04:20:09;;;;;;;16.23;11.65;;;;;;;4.40;100.00;101530.97;5054138;28;20029;-76
2021/03/25 04:23:00;;;;;;;14.60;11.18;;;;;;;4.72;100.00;101531.59;5040372;28;20032;-75
2021/03/25 04:25:59;;;;;;;17.15;12.38;;;;;;;4.42;100.00;101537.06;5054116;28;20025;-75
2021/03/25 04:29:16;;;;;;;17.80;12.10;;;;;;;4.27;100.00;101534.16;5054067;28;20442;-74
2021/03/25 04:32:03;;;;;;;17.27;12.48;;;;;;;4.25;100.00;101537.56;5049603;28;20051;-75
2021/03/25 04:34:50;;;;;;;16.85;11.60;;;;;;;4.53;100.00;101538.16;5053894;28;20025;-75
2021/03/25 04:37:36;;;;;;;14.93;10.88;;;;;;;4.45;100.00;101541.44;5054639;28;20031;-75
2021/03/25 04:40:31;;;;;;;16.10;11.40;;;;;;;4.27;100.00;101536.75;5054259;28;20041;-74
2021/03/25 04:43:20;;;;;;;17.80;12.38;;;;;;;4.51;100.00;101539.84;5054164;28;20048;-75
2021/03/25 04:46:34;;;;;;;17.63;11.15;;;;;;;4.46;100.00;101548.41;5054024;28;20067;-75
2021/03/25 04:49:30;;;;;;;15.85;11.85;;;;;;;4.70;100.00;101554.03;5054428;28;20025;-75
2021/03/25 04:52:34;;;;;;;20.00;12.85;;;;;;;4.46;100.00;101556.19;5053967;28;20063;-74
2021/03/25 04:55:23;;;;;;;18.73;13.50;;;;;;;4.52;100.00;101564.97;5054443;28;20412;-75
2021/03/25 04:58:12;;;;;;;20.35;13.45;;;;;;;4.49;100.00;101566.59;5053747;28;20035;-75
2021/03/25 05:01:07;;;;;;;19.33;12.77;;;;;;;4.65;100.00;101558.28;5054530;28;20040;-75
2021/03/25 05:04:00;;;;;;;21.83;12.98;;;;;;;4.64;100.00;101565.22;5054035;28;20056;-75
2021/03/25 05:06:46;;;;;;;16.30;12.32;;;;;;;4.89;100.00;101569.13;5054672;28;20078;-75
2021/03/25 05:09:35;;;;;;;16.58;12.02;;;;;;;5.07;100.00;101572.09;5039689;28;20040;-74
2021/03/25 05:12:22;;;;;;;17.70;11.77;;;;;;;4.89;100.00;101577.81;5054545;28;20060;-76
2021/03/25 05:15:14;;;;;;;16.70;11.73;;;;;;;4.91;100.00;101581.28;5052952;28;20036;-75
2021/03/25 05:18:08;;;;;;;17.05;10.88;;;;;;;4.61;100.00;101590.19;5054040;28;20475;-75
2021/03/25 05:21:01;;;;;;;15.85;11.50;;;;;;;4.43;100.00;101589.84;5053788;28;20075;-75
2021/03/25 05:24:00;;;;;;;15.40;10.77;;;;;;;4.63;100.00;101597.16;5053744;28;20048;-74
2021/03/25 05:26:53;;;;;;;14.30;10.38;;;;;;;4.82;100.00;101596.69;5038800;28;20025;-75
2021/03/25 05:29:43;;;;;;;16.85;11.93;;;;;;;4.45;100.00;101588.13;5053234;28;20100;-75
2021/03/25 05:32:34;;;;;;;16.67;11.38;;;;;;;4.58;100.00;101601.41;5054017;28;20037;-76
2021/03/25 05:35:24;;;;;;;19.50;12.63;;;;;;;4.18;100.00;101605.72;5038880;28;20025;-75
2021/03/25 05:38:10;;;;;;;30.05;20.42;;;;;;;4.55;100.00;101606.50;5052705;28;20080;-75
2021/03/25 05:41:02;;;;;;;20.33;14.40;;;;;;;4.57;100.00;101607.44;5039639;28;20021;-76
2021/03/25 05:44:06;;;;;;;22.30;14.77;;;;;;;3.94;100.00;101613.78;5052689;28;20133;-75
2021/03/25 05:46:54;;;;;;;19.10;13.00;;;;;;;4.02;100.00;101620.03;5053519;28;20037;-74
2021/03/25 05:49:47;;;;;;;17.55;12.30;;;;;;;4.42;100.00;101624.41;5053791;28;20057;-74
2021/03/25 05:52:57;;;;;;;19.42;13.73;;;;;;;4.45;100.00;101627.03;5037996;28;20082;-75
2021/03/25 05:55:49;;;;;;;16.90;12.27;;;;;;;4.18;100.00;101623.88;5053660;28;20061;-75
2021/03/25 05:58:44;;;;;;;18.15;12.10;;;;;;;4.21;100.00;101627.41;5053722;28;20025;-75
2021/03/25 06:01:53;;;;;;;18.38;12.30;;;;;;;4.48;100.00;101635.78;5053697;28;20044;-74
2021/03/25 06:04:39;;;;;;;18.05;12.48;;;;;;;3.82;100.00;101631.66;5038680;28;20025;-75
2021/03/25 06:07:39;;;;;;;17.80;12.45;;;;;;;4.35;100.00;101627.72;5053095;28;20029;-74
2021/03/25 06:10:37;;;;;;;14.38;10.43;;;;;;;4.30;100.00;101630.19;5053240;28;20480;-77
2021/03/25 06:13:38;;;;;;;17.55;12.43;;;;;;;4.06;100.00;101632.22;5053331;28;20029;-75
2021/03/25 06:16:33;;;;;;;21.30;13.60;;;;;;;3.98;100.00;101633.75;5053205;28;20457;-74
2021/03/25 06:19:25;;;;;;;17.08;12.10;;;;;;;4.26;100.00;101640.47;5053483;28;20029;-75
2021/03/25 06:22:19;;;;;;;17.15;12.13;;;;;;;4.31;100.00;101637.13;5053110;28;20108;-75
2021/03/25 06:25:39;;;;;;;16.98;12.32;;;;;;;4.11;100.00;101646.16;5053643;28;20029;-75
2021/03/25 06:28:30;;;;;;;16.73;10.82;;;;;;;3.44;100.00;101655.72;5038842;28;20104;-76
2021/03/25 06:31:26;;;;;;;14.93;10.18;;;;;;;3.94;100.00;101649.22;5052990;28;20052;-76
2021/03/25 06:34:25;;;;;;;15.13;10.93;;;;;;;3.92;100.00;101653.47;5053032;28;20105;-75
2021/03/25 06:37:27;;;;;;;16.00;11.75;;;;;;;4.18;100.00;101661.03;5056105;28;20045;-76
2021/03/25 06:40:18;;;;;;;17.45;11.68;;;;;;;4.21;100.00;101668.00;5056345;28;20086;-76
2021/03/25 06:43:16;;;;;;;15.45;10.80;;;;;;;4.18;100.00;101674.00;5056252;28;20445;-74
2021/03/25 06:46:22;;;;;;;15.60;10.68;;;;;;;4.38;100.00;101679.66;5056635;28;20040;-73
2021/03/25 06:49:36;;;;;;;15.38;10.88;;;;;;;3.89;100.00;101681.91;5053657;28;20076;-75
2021/03/25 06:52:29;;;;;;;14.95;10.98;;;;;;;4.30;100.00;101674.28;5056799;28;20032;-73
2021/03/25 06:55:22;;;;;;;16.67;11.57;;;;;;;4.58;100.00;101686.16;5044864;28;20032;-75
2021/03/25 06:58:14;;;;;;;15.43;11.38;;;;;;;4.22;100.00;101688.78;5059295;28;20059;-76
2021/03/25 07:01:35;;;;;;;15.98;11.40;;;;;;;4.33;100.00;101692.53;5042279;28;20108;-76
2021/03/25 07:04:27;;;;;;;16.80;12.50;;;;;;;4.89;100.00;101701.53;5056758;28;20025;-75
2021/03/25 07:07:19;;;;;;;18.35;13.02;;;;;;;4.48;100.00;101699.78;5056445;28;20032;-74
2021/03/25 07:10:07;;;;;;;16.58;11.38;;;;;;;4.55;100.00;101699.94;5059859;28;20029;-74
2021/03/25 07:13:02;;;;;;;20.15;14.20;;;;;;;5.15;100.00;101706.41;5045403;28;20032;-76
2021/03/25 07:15:48;;;;;;;20.85;14.27;;;;;;;4.79;100.00;101713.44;5041110;28;20396;-74
2021/03/25 07:18:59;;;;;;;18.80;13.30;;;;;;;4.80;100.00;101712.63;5056204;28;20025;-75
2021/03/25 07:21:46;;;;;;;18.35;13.48;;;;;;;4.56;100.00;101709.50;5041021;28;20437;-75
2021/03/25 07:24:36;;;;;;;20.30;14.77;;;;;;;5.04;100.00;101717.44;5027829;28;20033;-75
2021/03/25 07:27:32;;;;;;;20.63;13.63;;;;;;;5.11;100.00;101725.38;5054898;28;20052;-76
2021/03/25 07:30:20;;;;;;;19.52;14.05;;;;;;;5.62;100.00;101722.06;5056672;28;20195;-76
2021/03/25 07:33:11;;;;;;;21.50;14.88;;;;;;;5.46;100.00;101728.69;5055647;28;20457;-76
2021/03/25 07:36:13;;;;;;;17.38;12.85;;;;;;;5.22;100.00;101731.69;5055860;28;20087;-77
2021/03/25 07:39:04;;;;;;;21.92;14.90;;;;;;;5.61;100.00;101730.69;5040860;28;20090;-76
2021/03/25 07:41:52;;;;;;;22.85;15.73;;;;;;;5.48;100.00;101721.81;5056828;28;20067;-74
2021/03/25 07:44:41;;;;;;;19.52;14.38;;;;;;;5.44;100.00;101730.38;5040669;28;20051;-74
2021/03/25 07:47:34;;;;;;;24.33;16.50;;;;;;;6.17;100.00;101730.88;5053928;28;20039;-75
2021/03/25 07:50:32;;;;;;;22.98;16.50;;;;;;;5.51;100.00;101737.47;5040987;28;20021;-75
2021/03/25 07:53:30;;;;;;;20.27;14.13;;;;;;;5.61;100.00;101734.16;5055541;28;20044;-73
2021/03/25 07:56:17;;;;;;;20.45;15.60;;;;;;;5.38;100.00;101741.53;5055735;28;20120;-75
2021/03/25 07:59:03;;;;;;;21.20;15.27;;;;;;;5.99;100.00;101730.56;5055102;28;20028;-74
2021/03/25 08:01:49;;;;;;;18.38;13.77;;;;;;;5.68;100.00;101733.44;5055863;28;20531;-74
2021/03/25 08:04:34;;;;;;;23.88;16.00;;;;;;;5.35;100.00;101738.00;5055763;28;20048;-75
2021/03/25 08:07:21;;;;;;;23.60;15.05;;;;;;;5.41;100.00;101732.91;5054625;28;20036;-75
2021/03/25 08:10:36;;;;;;;22.80;13.63;;;;;;;6.28;100.00;101728.44;5055080;28;20028;-76
2021/03/25 08:13:40;;;;;;;22.15;15.38;;;;;;;6.34;100.00;101731.16;5055386;28;20021;-75
2021/03/25 08:16:28;;;;;;;17.05;12.23;;;;;;;6.91;100.00;101727.66;5055525;28;20020;-79
2021/03/25 08:19:40;;;;;;;17.42;13.23;;;;;;;6.41;100.00;101714.75;5055522;28;20430;-77
2021/03/25 08:22:53;;;;;;;19.65;13.00;;;;;;;6.74;100.00;101717.84;5055309;28;20016;-74
2021/03/25 08:25:43;;;;;;;19.27;12.88;;;;;;;6.51;100.00;101708.84;5039825;28;20464;-75
2021/03/25 08:28:53;;;;;;;16.75;11.88;;;;;;;6.95;100.00;101720.75;5039192;28;20024;-74
2021/03/25 08:32:08;;;;;;;15.88;11.98;;;;;;;6.38;100.00;101718.19;5040224;28;20514;-77
2021/03/25 08:35:35;;;;;;;15.55;11.75;;;;;;;6.96;100.00;101712.09;5025130;28;20449;-73
2021/03/25 08:39:01;;;;;;;17.05;11.90;;;;;;;6.96;100.00;101705.16;5038054;28;20029;-76
2021/03/25 08:41:52;;;;;;;15.98;11.25;;;;;;;6.66;100.00;101698.63;5054907;28;20036;-76
2021/03/25 08:44:55;;;;;;;15.90;10.88;;;;;;;7.16;100.00;101708.00;5039635;28;20073;-74
2021/03/25 08:48:14;;;;;;;19.60;12.98;;;;;;;7.23;100.00;101705.47;5055208;28;20028;-74
2021/03/25 08:51:23;;;;;;;13.90;10.50;;;;;;;6.76;100.00;101697.91;5053574;28;20029;-75
2021/03/25 08:54:12;;;;;;;15.45;11.27;;;;;;;7.27;100.00;101693.38;5040393;28;20083;-75
2021/03/25 08:57:24;;;;;;;13.95;11.00;;;;;;;7.61;100.00;101700.69;5039791;28;20361;-76
2021/03/25 09:00:15;;;;;;;15.25;11.07;;;;;;;7.86;100.00;101698.31;5054646;28;20461;-74
2021/03/25 09:03:32;;;;;;;13.98;10.23;;;;;;;7.16;100.00;101693.22;5039274;28;20449;-73
2021/03/25 09:06:23;;;;;;;13.05;9.65;;;;;;;7.49;100.00;101692.72;5039343;28;20060;-74
2021/03/25 09:09:32;;;;;;;13.20;9.82;;;;;;;7.89;100.00;101695.75;5038509;28;20029;-74
2021/03/25 09:12:30;;;;;;;13.68;9.90;;;;;;;8.09;100.00;101698.53;5053461;28;20369;-75
2021/03/25 09:15:16;;;;;;;14.10;10.23;;;;;;;8.42;100.00;101689.25;5053558;28;20036;-76
2021/03/25 09:18:07;;;;;;;15.40;10.80;;;;;;;7.84;100.00;101688.75;5038629;28;20040;-75
2021/03/25 09:20:56;;;;;;;11.80;8.85;;;;;;;8.64;100.00;101701.56;5053017;28;20111;-75
2021/03/25 09:24:06;;;;;;;13.18;8.95;;;;;;;8.91;100.00;101698.22;5053628;28;20050;-74
2021/03/25 09:26:57;;;;;;;12.55;9.43;;;;;;;9.01;100.00;101694.78;5038731;28;20112;-75
2021/03/25 09:30:19;;;;;;;12.18;9.48;;;;;;;8.52;100.00;101695.41;5052666;28;20029;-75
2021/03/25 09:33:44;;;;;;;11.80;9.02;;;;;;;8.04;100.00;101684.56;5024942;28;20025;-75
2021/03/25 09:36:32;;;;;;;12.65;9.10;;;;;;;8.46;100.00;101691.00;5039219;28;20032;-75
2021/03/25 09:39:23;;;;;;;14.55;10.52;;;;;;;8.05;100.00;101686.31;5053171;28;20032;-75
2021/03/25 09:42:15;;;;;;;13.27;9.23;;;;;;;8.43;100.00;101685.75;5053190;28;20366;-76
2021/03/25 09:45:18;;;;;;;11.73;8.52;;;;;;;8.70;100.00;101693.78;5038545;28;20452;-75
2021/03/25 09:48:05;;;;;;;11.70;8.90;;;;;;;8.53;100.00;101686.69;5053732;28;20373;-74
2021/03/25 09:51:18;;;;;;;12.00;9.07;;;;;;;8.74;100.00;101690.31;5038182;28;20025;-76
2021/03/25 09:54:17;;;;;;;12.63;8.98;;;;;;;8.92;100.00;101687.78;5039131;28;20044;-75
2021/03/25 09:57:26;;;;;;;11.43;8.88;;;;;;;8.77;100.00;101679.84;5053546;28;20025;-75
2021/03/25 10:00:24;;;;;;;12.27;9.43;;;;;;;8.70;100.00;101674.59;5053852;28;20017;-75
2021/03/25 10:03:14;;;;;;;14.77;9.90;;;;;;;8.43;100.00;101675.31;5039179;28;20028;-76
2021/03/25 10:06:00;;;;;;;14.25;10.00;;;;;;;8.79;100.00;101672.03;5038333;28;20090;-76
2021/03/25 10:08:50;;;;;;;12.73;9.18;;;;;;;8.83;100.00;101672.06;5039087;28;20386;-76
2021/03/25 10:11:54;;;;;;;12.30;9.63;;;;;;;8.59;100.00;101676.25;5043245;28;20036;-75
2021/03/25 10:14:51;;;;;;;12.35;9.05;;;;;;;8.45;100.00;101668.34;5057654;28;20135;-76
2021/03/25 10:17:48;;;;;;;12.85;8.98;;;;;;;8.60;100.00;101671.06;5056832;28;20035;-74
2021/03/25 10:21:01;;;;;;;12.05;9.20;;;;;;;8.57;100.00;101671.03;5056224;28;20032;-74
2021/03/25 10:23:50;;;;;;;12.10;8.93;;;;;;;8.84;100.00;101673.78;5042402;28;20036;-75
2021/03/25 10:26:40;;;;;;;12.02;9.02;;;;;;;8.96;100.00;101673.00;5042254;28;20342;-74
2021/03/25 10:29:36;;;;;;;11.55;9.10;;;;;;;8.74;100.00;101676.34;5057368;28;20446;-75
2021/03/25 10:32:30;;;;;;;12.20;9.52;;;;;;;8.86;100.00;101682.53;5056613;28;20413;-75
2021/03/25 10:35:33;;;;;;;12.50;9.55;;;;;;;8.77;100.00;101672.00;5056070;28;20036;-74
2021/03/25 10:38:27;;;;;;;11.45;8.57;;;;;;;9.04;100.00;101669.53;5057217;28;20025;-76
2021/03/25 10:41:23;;;;;;;11.45;8.90;;;;;;;8.63;100.00;101671.09;5056812;28;20442;-75
2021/03/25 10:44:32;;;;;;;13.13;8.90;;;;;;;8.37;100.00;101663.97;5056378;28;20063;-76
2021/03/25 10:47:21;;;;;;;11.43;8.77;;;;;;;8.38;100.00;101668.31;5042027;28;20108;-76
2021/03/25 10:50:07;;;;;;;13.48;9.23;;;;;;;8.56;100.00;101669.28;5056783;28;20029;-75
2021/03/25 10:52:53;;;;;;;11.25;8.70;;;;;;;8.97;100.00;101665.13;5056059;28;20021;-76
2021/03/25 10:55:44;;;;;;;13.65;9.75;;;;;;;9.48;100.00;101665.31;5055884;28;20033;-75
2021/03/25 10:58:37;;;;;;;17.17;10.65;;;;;;;9.57;100.00;101662.69;5042012;28;20353;-75
2021/03/25 11:01:28;;;;;;;19.00;11.75;;;;;;;9.48;100.00;101648.72;5042668;28;20029;-74
2021/03/25 11:04:22;;;;;;;13.70;9.55;;;;;;;9.70;100.00;101651.38;5042098;28;20091;-75
2021/03/25 11:07:15;;;;;;;12.35;9.40;;;;;;;9.29;100.00;101660.03;5041637;28;20021;-75
2021/03/25 11:10:01;;;;;;;13.55;8.90;;;;;;;9.68;100.00;101650.50;5056043;28;20021;-74
2021/03/25 11:13:15;;;;;;;15.07;10.68;;;;;;;10.10;98.43;101650.53;5056068;28;20024;-74
2021/03/25 11:16:08;;;;;;;11.10;8.65;;;;;;;8.76;98.33;101664.19;5056073;28;20044;-73
2021/03/25 11:19:17;;;;;;;10.80;7.75;;;;;;;7.89;100.00;101654.00;5056079;28;20369;-76
2021/03/25 11:22:03;;;;;;;11.05;8.15;;;;;;;8.22;100.00;101658.63;5056194;28;20339;-75
2021/03/25 11:24:50;;;;;;;13.00;8.90;;;;;;;8.22;100.00;101658.63;5057139;28;20029;-76
2021/03/25 11:27:37;;;;;;;10.90;8.20;;;;;;;8.77;100.00;101655.47;5055786;28;20530;-74
2021/03/25 11:30:39;;;;;;;14.73;9.00;;;;;;;9.22;100.00;101645.19;5055900;28;20025;-75
2021/03/25 11:33:38;;;;;;;11.18;8.70;;;;;;;9.13;100.00;101639.94;5054759;28;20346;-75
2021/03/25 11:36:46;;;;;;;11.00;8.40;;;;;;;10.18;99.50;101631.34;5041775;28;20385;-75
2021/03/25 11:39:32;;;;;;;9.55;7.18;;;;;;;10.72;91.43;101628.59;5040572;28;20025;-74
2021/03/25 11:42:22;;;;;;;14.18;10.35;;;;;;;9.12;100.00;101632.94;5056993;28;20445;-73
2021/03/25 11:45:33;;;;;;;12.60;8.85;;;;;;;9.77;100.00;101626.09;5021668;28;20099;-74
2021/03/25 11:48:26;;;;;;;14.02;9.18;;;;;;;9.24;99.55;101627.75;5035750;28;20378;-75
2021/03/25 11:51:15;;;;;;;11.23;8.75;;;;;;;9.75;100.00;101620.88;5021531;28;20044;-74
2021/03/25 11:54:21;;;;;;;11.25;8.68;;;;;;;9.64;96.89;101619.09;5035198;28;20029;-74
2021/03/25 11:57:33;;;;;;;13.30;9.93;;;;;;;9.23;100.00;101615.56;5020882;28;20056;-73
2021/03/25 12:00:54;;;;;;;15.88;10.55;;;;;;;8.93;100.00;101615.47;5035759;28;20028;-74
2021/03/25 12:04:23;;;;;;;17.65;11.63;;;;;;;8.08;100.00;101618.47;5020197;28;20124;-74
2021/03/25 12:07:11;;;;;;;16.52;12.13;;;;;;;8.92;100.00;101608.53;5035013;28;20365;-74
2021/03/25 12:10:09;;;;;;;14.77;10.48;;;;;;;8.22;100.00;101615.13;5034702;28;20031;-73
2021/03/25 12:12:55;;;;;;;15.35;10.95;;;;;;;9.05;100.00;101619.00;5035242;28;20025;-75
2021/03/25 12:15:41;;;;;;;13.18;10.00;;;;;;;8.83;100.00;101624.13;5019734;28;20033;-74
2021/03/25 12:18:46;;;;;;;16.85;12.18;;;;;;;8.73;100.00;101619.75;5034864;28;20391;-75
2021/03/25 12:21:33;;;;;;;14.60;10.98;;;;;;;8.75;100.00;101621.50;5034530;28;20462;-74
2021/03/25 12:24:19;;;;;;;12.00;9.18;;;;;;;8.15;100.00;101621.13;5035947;28;20516;-74
2021/03/25 12:27:05;;;;;;;12.35;9.77;;;;;;;8.40;100.00;101624.81;5035102;28;20453;-74
2021/03/25 12:29:53;;;;;;;12.38;10.13;;;;;;;8.53;100.00;101622.25;5035449;28;20033;-75
2021/03/25 12:32:39;;;;;;;14.18;10.13;;;;;;;8.26;100.00;101621.22;5033606;28;20025;-75
2021/03/25 12:35:24;;;;;;;14.13;10.15;;;;;;;8.46;100.00;101624.84;5035125;28;20052;-75
2021/03/25 12:38:10;;;;;;;13.40;9.38;;;;;;;8.51;100.00;101616.16;5034766;28;20036;-75
2021/03/25 12:41:00;;;;;;;12.70;9.40;;;;;;;8.87;100.00;101610.22;5034233;28;20079;-74
2021/03/25 12:43:51;;;;;;;13.57;10.63;;;;;;;8.70;100.00;101620.63;5046622;28;20049;-73
2021/03/25 12:46:37;;;;;;;15.48;11.05;;;;;;;8.36;100.00;101623.91;5054770;28;20016;-74
2021/03/25 12:49:23;;;;;;;14.13;10.55;;;;;;;8.54;100.00;101618.81;5039441;28;20021;-73
2021/03/25 12:52:12;;;;;;;14.60;10.52;;;;;;;8.13;100.00;101622.00;5053222;28;20032;-75
2021/03/25 12:54:58;;;;;;;15.55;10.57;;;;;;;8.29;100.00;101606.47;5027021;28;20044;-74
2021/03/25 12:57:44;;;;;;;26.10;14.25;;;;;;;7.89;100.00;101608.78;5054673;28;20488;-75
2021/03/25 13:00:35;;;;;;;16.55;11.07;;;;;;;8.36;100.00;101607.38;5054566;28;20033;-74
2021/03/25 13:03:21;;;;;;;18.25;10.82;;;;;;;9.30;100.00;101606.88;5053951;28;20056;-73
2021/03/25 13:09:14;;;;;;;15.73;10.90;;;;;;;7.66;100.00;101600.75;5054029;28;20028;-73
2021/03/25 13:12:27;;;;;;;14.23;10.57;;;;;;;8.92;100.00;101598.06;5054175;28;20021;-73
2021/03/25 13:15:14;;;;;;;15.65;10.75;;;;;;;8.28;100.00;101596.03;5053439;28;20025;-75
2021/03/25 13:18:02;;;;;;;21.00;14.82;;;;;;;9.11;100.00;101594.59;5055484;28;20040;-74
2021/03/25 13:20:49;;;;;;;16.70;10.52;;;;;;;8.35;100.00;101592.56;5053550;28;20040;-76